Time;durP1;ratioP1;P1;durP2;ratioP2;P2;SDS_P1;SDS_P2;PMS_P1;PMS_P2;Temp;Humidity;BMP_temperature;BMP_pressure;BME280_temperature;BME280_humidity;BME280_pressure;Samples;Min_cycle;Max_cycle;Signal;HPM_P1;HPM_P2
2022/08/24 00:00:55;;;;;;;1999.90;999.90;;;;;;;15.75;100.00;94224.50;4922219;29;20280;-62
2022/08/24 00:03:21;;;;;;;1999.90;999.90;;;;;;;15.73;100.00;94229.69;4922253;29;20206;-63
2022/08/24 00:05:46;;;;;;;1999.90;999.90;;;;;;;15.78;100.00;94242.09;4937959;29;20345;-62
2022/08/24 00:08:13;;;;;;;1999.90;999.90;;;;;;;15.83;100.00;94282.75;4922070;29;20217;-62
2022/08/24 00:10:39;;;;;;;1999.90;999.90;;;;;;;15.84;100.00;94307.06;4922202;29;20233;-61
2022/08/24 00:13:05;;;;;;;1999.90;999.90;;;;;;;15.91;100.00;94325.22;4922497;29;20190;-61
2022/08/24 00:15:31;;;;;;;1999.90;999.90;;;;;;;15.89;100.00;94347.72;4922509;29;20221;-62
2022/08/24 00:17:56;;;;;;;1999.90;999.90;;;;;;;15.89;100.00;94328.44;4922457;29;20206;-61
2022/08/24 00:20:22;;;;;;;1999.90;999.90;;;;;;;15.91;100.00;94345.28;4921878;29;20217;-60
2022/08/24 00:22:47;;;;;;;1999.90;999.90;;;;;;;15.92;100.00;94379.09;4922449;29;20202;-62
2022/08/24 00:25:13;;;;;;;1999.90;999.90;;;;;;;15.91;100.00;94403.13;4921707;29;20308;-61
2022/08/24 00:27:39;;;;;;;1999.90;999.90;;;;;;;15.89;100.00;94408.31;4921886;29;20202;-61
2022/08/24 00:30:08;;;;;;;1999.90;999.90;;;;;;;15.86;100.00;94387.22;4921554;29;20261;-62
2022/08/24 00:32:34;;;;;;;1999.90;999.90;;;;;;;15.80;100.00;94364.28;4921514;29;20240;-61
2022/08/24 00:35:00;;;;;;;1999.90;999.90;;;;;;;15.67;100.00;94340.91;4922406;29;20288;-62
2022/08/24 00:37:27;;;;;;;1999.90;999.90;;;;;;;15.63;100.00;94321.03;4921652;29;20224;-62
2022/08/24 00:39:53;;;;;;;1999.90;999.90;;;;;;;15.57;100.00;94309.88;4921750;29;20220;-62
2022/08/24 00:42:18;;;;;;;1999.90;999.90;;;;;;;15.52;100.00;94338.00;4921476;29;20217;-62
2022/08/24 00:44:44;;;;;;;1999.90;999.90;;;;;;;15.48;100.00;94320.88;4922054;29;20217;-61
2022/08/24 00:47:32;;;;;;;1999.90;999.90;;;;;;;15.48;100.00;94326.38;4921998;29;20265;-61
2022/08/24 00:50:05;;;;;;;1999.90;999.90;;;;;;;15.42;100.00;94324.72;4921888;29;20323;-61
2022/08/24 00:52:46;;;;;;;1999.90;999.90;;;;;;;15.35;100.00;94319.50;4937363;29;20249;-61
2022/08/24 00:55:25;;;;;;;1999.90;999.90;;;;;;;15.33;100.00;94311.69;4921435;29;20208;-61
2022/08/24 00:57:54;;;;;;;1999.90;999.90;;;;;;;15.32;100.00;94320.41;4921562;29;20232;-62
2022/08/24 01:00:25;;;;;;;1999.90;999.90;;;;;;;15.28;100.00;94315.09;4921193;29;20233;-63
2022/08/24 01:02:58;;;;;;;1999.90;999.90;;;;;;;15.24;100.00;94311.72;4921841;29;20296;-63
2022/08/24 01:05:24;;;;;;;1999.90;999.90;;;;;;;15.21;100.00;94281.59;4921704;29;20236;-62
2022/08/24 01:07:49;;;;;;;1999.90;999.90;;;;;;;15.22;100.00;94256.41;4921086;29;20202;-62
2022/08/24 01:10:27;;;;;;;1999.90;999.90;;;;;;;15.23;100.00;94246.16;4921341;29;20338;-61
2022/08/24 01:13:00;;;;;;;1999.90;999.90;;;;;;;15.18;100.00;94261.28;4921479;29;20264;-62
2022/08/24 01:15:26;;;;;;;1999.90;999.90;;;;;;;15.15;100.00;94294.47;4921169;29;20189;-63
2022/08/24 01:20:35;;;;;;;1999.90;999.90;;;;;;;15.06;100.00;94259.47;4937973;29;20212;-61
2022/08/24 01:23:16;;;;;;;1999.90;999.90;;;;;;;15.00;100.00;94233.81;4936964;29;20300;-61
2022/08/24 01:25:43;;;;;;;1999.90;999.90;;;;;;;14.95;100.00;94209.69;4920353;29;20216;-62
2022/08/24 01:28:16;;;;;;;1999.90;999.90;;;;;;;14.93;100.00;94190.13;4921319;29;20261;-62
2022/08/24 01:30:43;;;;;;;1999.90;999.90;;;;;;;14.90;100.00;94140.81;4920805;29;20264;-61
2022/08/24 01:33:10;;;;;;;1999.90;999.90;;;;;;;14.85;100.00;94144.94;4921154;29;20288;-62
2022/08/24 01:35:38;;;;;;;1999.90;999.90;;;;;;;14.83;100.00;94111.63;4920753;29;20206;-61
2022/08/24 01:38:07;;;;;;;1999.90;999.90;;;;;;;14.77;100.00;94105.25;4921228;29;20210;-61
2022/08/24 01:40:37;;;;;;;1999.90;999.90;;;;;;;14.70;100.00;94072.59;4936398;29;20230;-62
2022/08/24 01:43:05;;;;;;;1999.90;999.90;;;;;;;14.61;100.00;94022.41;4920648;29;20205;-62
2022/08/24 01:45:31;;;;;;;1999.90;999.90;;;;;;;14.54;100.00;93996.00;4920924;29;20214;-61
2022/08/24 01:47:58;;;;;;;1999.90;999.90;;;;;;;14.49;100.00;93980.13;4920773;29;20214;-62
2022/08/24 01:50:24;;;;;;;1999.90;999.90;;;;;;;14.46;100.00;93959.09;4937550;29;20210;-61
2022/08/24 01:52:51;;;;;;;1999.90;999.90;;;;;;;14.46;100.00;93912.38;4920705;29;20279;-61
2022/08/24 01:55:18;;;;;;;1999.90;999.90;;;;;;;14.37;100.00;93904.19;4920675;29;20229;-61
2022/08/24 01:57:44;;;;;;;1999.90;999.90;;;;;;;14.28;100.00;93895.97;4920112;29;20209;-61
2022/08/24 02:00:15;;;;;;;1999.90;999.90;;;;;;;14.29;100.00;93885.75;4936238;29;20212;-60
2022/08/24 02:02:42;;;;;;;1999.90;999.90;;;;;;;14.28;100.00;93890.47;4920333;29;20210;-61
2022/08/24 02:05:10;;;;;;;1999.90;999.90;;;;;;;14.25;100.00;93861.22;4920649;29;20214;-61
2022/08/24 02:07:35;;;;;;;1999.90;999.90;;;;;;;14.19;100.00;93830.09;4919896;29;20225;-60
2022/08/24 02:10:00;;;;;;;1999.90;999.90;;;;;;;14.14;100.00;93674.25;4920128;29;20248;-61
2022/08/24 02:12:26;;;;;;;1999.90;999.90;;;;;;;14.13;100.00;93606.81;4920599;29;20220;-62
2022/08/24 02:14:51;;;;;;;1999.90;999.90;;;;;;;14.14;100.00;93586.41;4936569;29;20202;-61
2022/08/24 02:17:17;;;;;;;1999.90;999.90;;;;;;;14.14;100.00;93446.38;4920369;29;20221;-61
2022/08/24 02:19:43;;;;;;;1999.90;999.90;;;;;;;14.07;100.00;93177.78;4920109;29;20245;-61
2022/08/24 02:22:09;;;;;;;1999.90;999.90;;;;;;;14.04;100.00;92565.97;4920314;29;20222;-61
2022/08/24 02:24:35;;;;;;;1999.90;999.90;;;;;;;14.02;100.00;92574.69;4936247;29;20205;-61
2022/08/24 02:27:01;;;;;;;1999.90;999.90;;;;;;;14.03;100.00;92559.75;4920023;29;20206;-61
2022/08/24 02:29:27;;;;;;;1999.90;999.90;;;;;;;14.00;100.00;92483.16;4935956;29;20275;-61
2022/08/24 02:31:52;;;;;;;1999.90;999.90;;;;;;;13.93;100.00;92459.69;4920320;29;20206;-60
2022/08/24 02:34:18;;;;;;;1999.90;999.90;;;;;;;13.90;100.00;92446.97;4935904;29;20213;-61
2022/08/24 02:36:44;;;;;;;1999.90;999.90;;;;;;;13.90;100.00;92429.75;4920170;29;20198;-60
2022/08/24 02:39:09;;;;;;;1999.90;999.90;;;;;;;13.87;100.00;92412.28;4920224;29;20242;-60
2022/08/24 02:41:36;;;;;;;1999.90;999.90;;;;;;;13.86;100.00;92407.31;4919552;29;20222;-61
2022/08/24 02:44:03;;;;;;;1999.90;999.90;;;;;;;13.81;100.00;92417.03;4920424;29;20296;-61
2022/08/24 02:46:29;;;;;;;1999.90;999.90;;;;;;;13.81;100.00;92422.53;4935992;29;20198;-61
2022/08/24 02:48:58;;;;;;;1999.90;999.90;;;;;;;13.78;100.00;92401.56;4920166;29;20212;-61
2022/08/24 02:51:32;;;;;;;1999.90;999.90;;;;;;;13.79;100.00;92370.16;4935460;29;20201;-61
2022/08/24 02:54:00;;;;;;;1999.90;999.90;;;;;;;13.76;100.00;92362.91;4920019;29;20212;-61
2022/08/24 02:56:28;;;;;;;1999.90;999.90;;;;;;;13.75;100.00;92331.25;4919672;29;20272;-61
2022/08/24 02:58:55;;;;;;;1999.90;999.90;;;;;;;13.75;100.00;92325.00;4919477;29;20198;-61
2022/08/24 03:01:20;;;;;;;1999.90;999.90;;;;;;;13.73;100.00;92306.28;4919506;29;20241;-61
2022/08/24 03:03:46;;;;;;;1999.90;999.90;;;;;;;13.72;100.00;92293.84;4920238;29;20228;-61
2022/08/24 03:06:11;;;;;;;1999.90;999.90;;;;;;;13.68;100.00;92260.44;4919574;29;20197;-61
2022/08/24 03:08:37;;;;;;;1999.90;999.90;;;;;;;13.65;100.00;92238.75;4935170;29;20273;-62
2022/08/24 03:11:04;;;;;;;1999.90;999.90;;;;;;;13.66;100.00;92208.06;4920196;29;20212;-61
2022/08/24 03:13:30;;;;;;;1999.90;999.90;;;;;;;13.67;100.00;92220.56;4919591;29;20286;-60
2022/08/24 03:15:58;;;;;;;1999.90;999.90;;;;;;;13.65;100.00;92208.59;4919608;29;20344;-61
2022/08/24 03:18:25;;;;;;;1999.90;999.90;;;;;;;13.59;100.00;92236.03;4919913;29;20230;-61
2022/08/24 03:20:52;;;;;;;1999.90;999.90;;;;;;;13.56;100.00;92242.50;4922954;29;20213;-60
2022/08/24 03:23:17;;;;;;;1999.90;999.90;;;;;;;13.50;100.00;92244.47;4938801;29;20280;-61
2022/08/24 03:25:43;;;;;;;1999.90;999.90;;;;;;;13.46;100.00;92208.34;4922506;29;20228;-61
2022/08/24 03:28:10;;;;;;;1999.90;999.90;;;;;;;13.42;100.00;92185.94;4922380;29;20217;-61
2022/08/24 03:30:36;;;;;;;1999.90;999.90;;;;;;;13.39;100.00;92137.59;4922644;29;20229;-61
2022/08/24 03:33:02;;;;;;;1999.90;999.90;;;;;;;13.36;100.00;92097.47;4938634;29;20198;-61
2022/08/24 03:35:27;;;;;;;1999.90;999.90;;;;;;;13.32;100.00;92085.28;4922400;29;20245;-62
2022/08/24 03:37:53;;;;;;;1999.90;999.90;;;;;;;13.32;100.00;92069.56;4922994;29;20189;-61
2022/08/24 03:40:19;;;;;;;1999.90;999.90;;;;;;;13.30;100.00;92072.09;4922859;29;20206;-61
2022/08/24 03:42:44;;;;;;;1999.90;999.90;;;;;;;13.32;100.00;92064.84;4922760;29;20200;-61
2022/08/24 03:45:10;;;;;;;1999.90;999.90;;;;;;;13.30;100.00;92067.34;4922248;29;20216;-61
2022/08/24 03:47:36;;;;;;;1999.90;999.90;;;;;;;13.32;100.00;92064.84;4922037;29;20193;-62
2022/08/24 03:50:03;;;;;;;1999.90;999.90;;;;;;;13.31;100.00;92079.03;4922382;29;20233;-61
2022/08/24 03:52:28;;;;;;;1999.90;999.90;;;;;;;13.29;100.00;92095.22;4938402;29;20233;-60
2022/08/24 03:54:54;;;;;;;1999.90;999.90;;;;;;;13.26;100.00;92099.72;4922221;29;20221;-61
2022/08/24 03:57:19;;;;;;;1999.90;999.90;;;;;;;13.24;100.00;92079.56;4922318;29;20209;-61
2022/08/24 03:59:44;;;;;;;1999.90;999.90;;;;;;;13.22;100.00;92057.38;4922448;29;20194;-61
2022/08/24 04:02:11;;;;;;;1999.90;999.90;;;;;;;13.19;100.00;92050.19;4922078;29;20268;-61
2022/08/24 04:04:36;;;;;;;1999.90;999.90;;;;;;;13.18;100.00;92048.66;4938219;29;20186;-61
2022/08/24 04:07:03;;;;;;;1999.90;999.90;;;;;;;13.18;100.00;92070.59;4922027;29;20209;-64
2022/08/24 04:09:28;;;;;;;1999.90;999.90;;;;;;;13.19;100.00;92072.09;4922660;29;20214;-61
2022/08/24 04:11:54;;;;;;;1999.90;999.90;;;;;;;13.16;100.00;92062.13;4922363;29;20206;-61
2022/08/24 04:14:19;;;;;;;1999.90;999.90;;;;;;;13.13;100.00;92057.66;4922243;29;20310;-61
2022/08/24 04:16:44;;;;;;;1999.90;999.90;;;;;;;13.10;100.00;92058.66;4922327;29;20295;-61
2022/08/24 04:19:12;;;;;;;1999.90;999.90;;;;;;;13.09;100.00;92076.34;4921839;29;20205;-61
2022/08/24 04:21:37;;;;;;;1999.90;999.90;;;;;;;13.13;100.00;92082.31;4921695;29;20217;-61
2022/08/24 04:24:06;;;;;;;1999.90;999.90;;;;;;;13.15;100.00;92072.34;4921957;29;20563;-62
2022/08/24 04:26:31;;;;;;;1999.90;999.90;;;;;;;13.17;100.00;92096.50;4921995;29;20203;-61
2022/08/24 04:28:58;;;;;;;1999.90;999.90;;;;;;;13.17;100.00;92134.88;4921689;29;20204;-61
2022/08/24 04:31:24;;;;;;;1999.90;999.90;;;;;;;13.18;100.00;92169.22;4937814;29;20292;-62
2022/08/24 04:33:51;;;;;;;1999.90;999.90;;;;;;;13.25;100.00;92185.94;4921963;29;20206;-61
2022/08/24 04:36:19;;;;;;;1999.90;999.90;;;;;;;13.32;100.00;92223.81;4922029;29;20209;-62
2022/08/24 04:38:45;;;;;;;1999.90;999.90;;;;;;;13.47;100.00;92255.72;4922388;29;20261;-61
2022/08/24 04:41:13;;;;;;;1999.90;999.90;;;;;;;13.61;100.00;92299.31;4922014;29;20224;-61
2022/08/24 04:43:41;;;;;;;1999.90;999.90;;;;;;;13.85;100.00;92339.97;4921901;29;20253;-62
2022/08/24 04:46:07;;;;;;;1999.90;999.90;;;;;;;14.07;100.00;92423.06;4922009;29;20210;-61
2022/08/24 04:48:34;;;;;;;1999.90;999.90;;;;;;;14.25;100.00;92510.44;4921237;29;20218;-62
2022/08/24 04:51:05;;;;;;;1999.90;999.90;;;;;;;14.53;100.00;92585.34;4921449;29;20206;-61
2022/08/24 04:53:31;;;;;;;1999.90;999.90;;;;;;;14.95;100.00;92678.59;4921425;29;20209;-61
2022/08/24 04:55:58;;;;;;;1999.90;999.90;;;;;;;15.52;100.00;92826.72;4921629;29;20269;-62
2022/08/24 04:58:23;;;;;;;1999.90;999.90;;;;;;;15.81;100.00;93063.69;4937520;29;20201;-63
2022/08/24 05:00:49;;;;;;;1999.90;999.90;;;;;;;16.23;100.00;93242.66;4937272;29;20222;-62
2022/08/24 05:03:14;;;;;;;1999.90;999.90;;;;;;;16.55;100.00;93449.28;4921324;29;20297;-62
2022/08/24 05:05:41;;;;;;;1999.90;999.90;;;;;;;16.82;100.00;93644.53;4921458;29;20182;-63
2022/08/24 05:08:07;;;;;;;1999.90;999.90;;;;;;;16.95;100.00;93868.28;4921822;29;20221;-62
2022/08/24 05:10:33;;;;;;;1999.90;999.90;;;;;;;17.20;100.00;94046.97;4936818;29;20202;-62
2022/08/24 05:12:58;;;;;;;1999.90;999.90;;;;;;;17.65;100.00;94195.53;4921401;29;20264;-61
2022/08/24 05:15:23;;;;;;;1999.90;999.90;;;;;;;17.97;100.00;94481.88;4936836;29;20249;-63
2022/08/24 05:17:49;;;;;;;1999.90;999.90;;;;;;;18.14;100.00;94657.09;4920969;29;20254;-62
2022/08/24 05:20:16;;;;;;;1999.90;999.90;;;;;;;18.57;100.00;94758.84;4921166;29;20197;-61
2022/08/24 05:22:41;;;;;;;1999.90;999.90;;;;;;;18.70;100.00;94858.97;4920999;29;20218;-61
2022/08/24 05:25:07;;;;;;;1999.90;999.90;;;;;;;19.14;100.00;94904.25;4936930;29;20265;-61
2022/08/24 05:27:33;;;;;;;1999.90;999.90;;;;;;;19.47;100.00;94990.88;4920881;29;20202;-61
2022/08/24 05:29:59;;;;;;;1999.90;999.90;;;;;;;19.88;100.00;95023.25;4920750;29;20206;-61
2022/08/24 05:32:24;;;;;;;1999.90;999.90;;;;;;;19.87;100.00;95120.75;4921548;29;20198;-62
2022/08/24 05:34:50;;;;;;;1999.90;999.90;;;;;;;20.25;100.00;95152.13;4920539;29;20205;-62
2022/08/24 05:37:15;;;;;;;1999.90;999.90;;;;;;;20.48;100.00;95176.34;4920984;29;20309;-62
2022/08/24 05:39:41;;;;;;;1999.90;999.90;;;;;;;21.12;100.00;95199.63;4921013;29;20248;-62
2022/08/24 05:42:07;;;;;;;1999.90;999.90;;;;;;;21.50;100.00;95243.28;4919895;29;20260;-62
2022/08/24 05:44:32;;;;;;;1999.90;999.90;;;;;;;21.68;100.00;95266.09;4920865;29;20274;-62
2022/08/24 05:46:58;;;;;;;1999.90;999.90;;;;;;;22.05;100.00;95286.03;4920538;29;20209;-62
2022/08/24 05:49:25;;;;;;;1999.90;999.90;;;;;;;22.35;100.00;95343.97;4936041;29;20228;-62
2022/08/24 05:51:50;;;;;;;1999.90;999.90;;;;;;;22.65;100.00;95353.06;4936405;29;20213;-62
2022/08/24 05:54:16;;;;;;;1999.90;999.90;;;;;;;22.81;96.51;95374.09;4920170;29;20209;-62
2022/08/24 05:56:41;;;;;;;1999.90;999.90;;;;;;;22.59;98.11;95359.81;4920859;29;20209;-63
2022/08/24 05:59:07;;;;;;;1999.90;999.90;;;;;;;23.07;94.82;95377.75;4920195;29;20197;-61
2022/08/24 06:01:32;;;;;;;1999.90;999.90;;;;;;;23.40;92.22;95383.84;4920377;29;20221;-61
2022/08/24 06:03:58;;;;;;;1999.90;999.90;;;;;;;23.99;89.93;95385.09;4920655;29;20210;-62
2022/08/24 06:06:25;;;;;;;1999.90;999.90;;;;;;;24.30;86.60;95397.09;4920555;29;20273;-62
2022/08/24 06:08:53;;;;;;;1999.90;999.90;;;;;;;24.79;83.01;95413.59;4920042;29;20206;-61
2022/08/24 06:11:26;;;;;;;1999.90;999.90;;;;;;;24.88;77.82;95443.41;4920722;29;20293;-62
2022/08/24 06:13:54;;;;;;;1999.90;999.90;;;;;;;25.84;76.43;95433.91;4936375;29;20265;-61
2022/08/24 06:16:20;;;;;;;1999.90;999.90;;;;;;;26.06;73.80;95450.06;4936412;29;20206;-62
2022/08/24 06:18:46;;;;;;;1999.90;999.90;;;;;;;26.80;69.43;95466.09;4919995;29;20202;-62
2022/08/24 06:21:15;;;;;;;1999.90;999.90;;;;;;;26.71;68.09;95471.94;4920167;29;20217;-63
2022/08/24 06:23:42;;;;;;;1999.90;999.90;;;;;;;26.91;67.18;95480.13;4920647;29;20257;-62
2022/08/24 06:28:52;;;;;;;1999.90;999.90;;;;;;;27.49;61.56;95512.81;4937236;29;20209;-63
2022/08/24 06:31:19;;;;;;;1999.90;999.90;;;;;;;28.04;57.05;95535.25;4936070;29;20186;-62
2022/08/24 06:33:44;;;;;;;1999.90;999.90;;;;;;;28.13;57.26;95532.16;4920415;29;20198;-62
2022/08/24 06:36:10;;;;;;;1999.90;999.90;;;;;;;27.90;57.73;95535.53;4919650;29;20202;-63
2022/08/24 06:38:35;;;;;;;1999.90;999.90;;;;;;;27.95;55.43;95543.97;4935437;29;20205;-59
2022/08/24 06:41:01;;;;;;;1999.90;999.90;;;;;;;29.15;51.60;95557.31;4920381;29;20313;-60
2022/08/24 06:43:26;;;;;;;1999.90;999.90;;;;;;;29.04;50.49;95575.03;4919283;29;20250;-60
2022/08/24 06:45:54;;;;;;;1999.90;999.90;;;;;;;29.67;48.30;95580.50;4919831;29;20229;-60
2022/08/24 06:48:20;;;;;;;1999.90;999.90;;;;;;;30.60;45.33;95576.06;4935159;29;20218;-60
2022/08/24 06:50:46;;;;;;;1999.90;999.90;;;;;;;30.39;45.02;95583.47;4919856;29;20201;-60
2022/08/24 06:53:13;;;;;;;1999.90;999.90;;;;;;;29.96;45.75;95596.66;4922935;29;20286;-60
2022/08/24 06:55:48;;;;;;;1999.90;999.90;;;;;;;29.88;44.48;95602.13;4926003;29;20260;-62
2022/08/24 06:58:13;;;;;;;1999.90;999.90;;;;;;;29.89;45.04;95598.00;4926436;29;20189;-62
2022/08/24 07:00:39;;;;;;;1999.90;999.90;;;;;;;29.81;45.57;95596.28;4941680;29;20282;-61
2022/08/24 07:03:04;;;;;;;1999.90;999.90;;;;;;;28.79;47.36;95604.28;4926282;29;20198;-61
2022/08/24 07:05:30;;;;;;;1999.90;999.90;;;;;;;29.45;46.69;95598.31;4926082;29;20273;-61
2022/08/24 07:07:56;;;;;;;1999.90;999.90;;;;;;;29.52;47.81;95608.25;4925812;29;20301;-62
2022/08/24 07:10:21;;;;;;;1999.90;999.90;;;;;;;29.71;47.68;95604.31;4925836;29;20205;-61
2022/08/24 07:12:47;;;;;;;1999.90;999.90;;;;;;;30.70;44.43;95602.63;4925902;29;20198;-61
2022/08/24 07:15:12;;;;;;;1999.90;999.90;;;;;;;30.55;44.20;95608.66;4925735;29;20206;-62
2022/08/24 07:17:38;;;;;;;1999.90;999.90;;;;;;;30.64;43.09;95605.50;4925766;29;20200;-61
2022/08/24 07:20:04;;;;;;;1999.90;999.90;;;;;;;31.21;42.63;95606.34;4926155;29;20244;-61
2022/08/24 07:22:29;;;;;;;1999.90;999.90;;;;;;;30.33;43.74;95619.41;4926243;29;20234;-61
2022/08/24 07:24:54;;;;;;;1999.90;999.90;;;;;;;31.55;42.67;95611.03;4925894;29;20197;-61
2022/08/24 07:27:22;;;;;;;1999.90;999.90;;;;;;;30.61;43.47;95609.38;4941623;29;20232;-61
2022/08/24 07:29:47;;;;;;;1999.90;999.90;;;;;;;30.07;45.77;95608.59;4941177;29;20205;-61
2022/08/24 07:32:12;;;;;;;1999.90;999.90;;;;;;;30.41;45.60;95597.81;4925994;29;20201;-61
2022/08/24 07:34:38;;;;;;;1999.90;999.90;;;;;;;30.52;46.18;95597.69;4926040;29;20197;-60
2022/08/24 07:37:04;;;;;;;1999.90;999.90;;;;;;;29.53;48.48;95601.34;4925191;29;20292;-61
2022/08/24 07:39:29;;;;;;;1999.90;999.90;;;;;;;30.17;45.28;95604.19;4925357;29;20293;-62
2022/08/24 07:41:56;;;;;;;1999.90;999.90;;;;;;;31.17;43.01;95607.41;4925368;29;20277;-62
2022/08/24 07:44:21;;;;;;;1999.90;999.90;;;;;;;30.73;43.59;95601.56;4941236;29;20197;-61
2022/08/24 07:46:47;;;;;;;1999.90;999.90;;;;;;;30.73;43.50;95596.69;4925280;29;20194;-60
2022/08/24 07:49:12;;;;;;;1999.90;999.90;;;;;;;31.34;38.78;95603.63;4925278;29;20197;-61
2022/08/24 07:51:39;;;;;;;1999.90;999.90;;;;;;;32.52;37.95;95603.50;4941301;29;20233;-61
2022/08/24 07:54:04;;;;;;;1999.90;999.90;;;;;;;32.22;37.59;95605.84;4925578;29;20198;-61
2022/08/24 07:56:30;;;;;;;1999.90;999.90;;;;;;;32.14;38.72;95596.47;4925634;29;20266;-62
2022/08/24 07:58:56;;;;;;;1999.90;999.90;;;;;;;32.34;38.54;95598.69;4940690;29;20218;-62
2022/08/24 08:01:23;;;;;;;1999.90;999.90;;;;;;;31.33;39.45;95611.34;4925522;29;20221;-62
2022/08/24 08:03:49;;;;;;;1999.90;999.90;;;;;;;31.39;40.10;95600.72;4925075;29;20284;-61
2022/08/24 08:06:15;;;;;;;1999.90;999.90;;;;;;;31.39;38.80;95597.88;4922056;29;20253;-62
2022/08/24 08:08:41;;;;;;;1999.90;999.90;;;;;;;32.78;37.03;95597.84;4921907;29;20206;-61
2022/08/24 08:11:07;;;;;;;1999.90;999.90;;;;;;;33.22;36.51;95594.13;4921959;29;20265;-61
2022/08/24 08:13:34;;;;;;;1999.90;999.90;;;;;;;33.50;36.20;95599.22;4921865;29;20209;-62
2022/08/24 08:16:00;;;;;;;1999.90;999.90;;;;;;;32.94;37.08;95582.63;4922059;29;20202;-61
2022/08/24 08:18:27;;;;;;;1999.90;999.90;;;;;;;32.75;37.28;95587.63;4922005;29;20202;-61
2022/08/24 08:20:53;;;;;;;1999.90;999.90;;;;;;;33.32;36.95;95595.19;4921859;29;20292;-61
2022/08/24 08:26:03;;;;;;;1999.90;999.90;;;;;;;33.24;36.99;95600.00;4939004;29;20238;-60
2022/08/24 08:28:32;;;;;;;1999.90;999.90;;;;;;;31.06;42.33;95603.97;4938011;29;20266;-61
2022/08/24 08:31:01;;;;;;;1999.90;999.90;;;;;;;29.73;46.25;95603.78;4937821;29;20209;-60
2022/08/24 08:33:27;;;;;;;1999.90;999.90;;;;;;;31.11;43.87;95591.84;4921620;29;20216;-61
2022/08/24 08:36:10;;;;;;;1999.90;999.90;;;;;;;31.24;43.93;95600.38;4921786;29;20201;-61
2022/08/24 08:38:38;;;;;;;1999.90;999.90;;;;;;;30.94;43.70;95594.13;4937314;29;20197;-61
2022/08/24 08:41:20;;;;;;;1999.90;999.90;;;;;;;30.64;44.11;95599.09;4937464;29;20217;-61
2022/08/24 08:44:04;;;;;;;1999.90;999.90;;;;;;;32.58;40.90;95598.50;4937894;29;20201;-60
2022/08/24 08:47:00;;;;;;;1999.90;999.90;;;;;;;33.59;37.07;95596.69;4921986;29;20208;-61
2022/08/24 08:50:00;;;;;;;1999.90;999.90;;;;;;;32.42;38.61;95591.13;4937085;29;20214;-60
2022/08/24 08:52:44;;;;;;;1999.90;999.90;;;;;;;33.26;38.96;95591.72;4937176;29;20289;-60
2022/08/24 08:55:37;;;;;;;1999.90;999.90;;;;;;;32.38;40.04;95602.00;4937314;29;20213;-61
2022/08/24 08:58:10;;;;;;;1999.90;999.90;;;;;;;30.80;43.72;95601.75;4937367;29;20201;-60
2022/08/24 09:00:44;;;;;;;1999.90;999.90;;;;;;;31.57;42.80;95594.28;4937124;29;20210;-61
2022/08/24 09:03:31;;;;;;;1999.90;999.90;;;;;;;32.63;41.65;95591.97;4936928;29;20201;-60
2022/08/24 09:06:11;;;;;;;1999.90;999.90;;;;;;;32.07;42.84;95591.44;4937690;29;20209;-61
2022/08/24 09:09:00;;;;;;;1999.90;999.90;;;;;;;32.26;41.00;95597.78;4937360;29;20198;-60
2022/08/24 09:11:38;;;;;;;1999.90;999.90;;;;;;;32.99;40.62;95598.75;4936737;29;20202;-60
2022/08/24 09:14:32;;;;;;;1999.90;999.90;;;;;;;32.98;40.79;95594.38;4936995;29;20280;-60
2022/08/24 09:17:22;;;;;;;1999.90;999.90;;;;;;;32.97;41.42;95587.22;4935744;29;20269;-61
2022/08/24 09:20:22;;;;;;;1999.90;999.90;;;;;;;33.82;40.01;95580.66;4937449;29;20197;-60
2022/08/24 09:23:00;;;;;;;1999.90;999.90;;;;;;;33.25;39.83;95583.78;4936600;29;20244;-60
2022/08/24 09:25:34;;;;;;;1999.90;999.90;;;;;;;33.04;40.55;95592.22;4921332;29;20201;-60
2022/08/24 09:28:12;;;;;;;1999.90;999.90;;;;;;;30.84;47.26;95578.84;4920896;29;20198;-60
2022/08/24 09:31:10;;;;;;;1999.90;999.90;;;;;;;31.34;44.62;95584.63;4936739;29;20229;-60
2022/08/24 09:33:38;;;;;;;1999.90;999.90;;;;;;;32.49;43.25;95584.81;4871426;29;20202;-60
2022/08/24 09:36:15;;;;;;;1999.90;999.90;;;;;;;32.04;42.85;95586.13;4936300;29;20217;-60
2022/08/24 09:39:15;;;;;;;1999.90;999.90;;;;;;;32.31;44.12;95584.88;4936742;29;20296;-60
2022/08/24 09:42:18;;;;;;;1999.90;999.90;;;;;;;33.22;41.42;95588.44;4936340;29;20277;-60
2022/08/24 09:45:26;;;;;;;1999.90;999.90;;;;;;;33.02;40.75;95577.81;4936190;29;20213;-61
2022/08/24 09:48:35;;;;;;;1999.90;999.90;;;;;;;31.59;45.59;95571.91;4936235;29;20208;-60
2022/08/24 09:51:01;;;;;;;1999.90;999.90;;;;;;;31.02;49.80;95578.09;4936182;29;20240;-60
2022/08/24 09:53:58;;;;;;;1999.90;999.90;;;;;;;30.84;49.92;95570.38;4936404;29;20213;-61
2022/08/24 09:56:38;;;;;;;1999.90;999.90;;;;;;;31.98;46.29;95569.25;4920137;29;20206;-60
2022/08/24 09:59:28;;;;;;;1999.90;999.90;;;;;;;32.56;42.41;95575.66;4936287;29;20276;-60
2022/08/24 10:02:16;;;;;;;1999.90;999.90;;;;;;;32.18;44.06;95574.28;4936116;29;20217;-60
2022/08/24 10:05:05;;;;;;;1999.90;999.90;;;;;;;33.02;41.70;95565.72;4936320;29;20197;-61
2022/08/24 10:07:49;;;;;;;1999.90;999.90;;;;;;;32.99;42.15;95573.25;4919878;29;20205;-61
2022/08/24 10:11:05;;;;;;;1999.90;999.90;;;;;;;32.52;46.55;95569.56;4936097;29;20228;-61
2022/08/24 10:13:59;;;;;;;1999.90;999.90;;;;;;;33.06;45.28;95566.16;4896488;29;20221;-61
2022/08/24 10:16:39;;;;;;;1999.90;999.90;;;;;;;30.07;56.50;95569.16;4936357;29;20257;-60
2022/08/24 10:19:29;;;;;;;1999.90;999.90;;;;;;;31.52;50.52;95566.91;4936394;29;20209;-60
2022/08/24 10:22:07;;;;;;;1999.90;999.90;;;;;;;31.48;50.34;95562.84;4936060;29;20225;-60
2022/08/24 10:24:45;;;;;;;1999.90;999.90;;;;;;;31.18;53.73;95560.94;4935938;29;20265;-61
2022/08/24 10:27:40;;;;;;;1999.90;999.90;;;;;;;32.54;49.32;95543.53;4935412;29;20204;-60
2022/08/24 10:30:18;;;;;;;1999.90;999.90;;;;;;;31.49;53.41;95551.00;4907711;29;20285;-61
2022/08/24 10:32:58;;;;;;;1999.90;999.90;;;;;;;31.88;50.84;95561.72;4935532;29;20194;-61
2022/08/24 10:35:35;;;;;;;1999.90;999.90;;;;;;;32.00;48.45;95563.03;4935505;29;20345;-60
2022/08/24 10:41:45;;;;;;;1999.90;999.90;;;;;;;33.12;44.53;95547.75;4936893;29;20208;-60
2022/08/24 10:44:17;;;;;;;1999.90;999.90;;;;;;;34.49;40.18;95556.28;4900377;29;20213;-60
2022/08/24 10:46:48;;;;;;;1999.90;999.90;;;;;;;33.58;41.48;95554.72;4935938;29;20206;-61
2022/08/24 10:49:35;;;;;;;1999.90;999.90;;;;;;;32.71;44.26;95547.59;4935074;29;20220;-60
2022/08/24 10:52:22;;;;;;;1999.90;999.90;;;;;;;31.71;48.13;95547.09;4935316;29;20204;-60
2022/08/24 10:54:47;;;;;;;1999.90;999.90;;;;;;;32.70;49.25;95536.81;4935456;29;20297;-60
2022/08/24 10:57:36;;;;;;;1999.90;999.90;;;;;;;32.43;50.96;95541.69;4919677;29;20248;-60
2022/08/24 11:00:06;;;;;;;1999.90;999.90;;;;;;;31.36;57.63;95544.56;4935783;29;20197;-60
2022/08/24 11:02:36;;;;;;;1999.90;999.90;;;;;;;32.73;53.10;95533.63;4935218;29;20206;-61
2022/08/24 11:05:14;;;;;;;1999.90;999.90;;;;;;;31.55;56.89;95531.91;4935860;29;20238;-61
2022/08/24 11:07:59;;;;;;;1999.90;999.90;;;;;;;31.02;57.86;95530.13;4919869;29;20259;-61
2022/08/24 11:10:29;;;;;;;1999.90;999.90;;;;;;;31.14;57.22;95523.78;4935483;29;20190;-60
2022/08/24 11:12:54;;;;;;;1999.90;999.90;;;;;;;30.08;62.16;95542.50;4935616;29;20197;-60
2022/08/24 11:15:26;;;;;;;1999.90;999.90;;;;;;;29.86;64.67;95541.97;4919655;29;20204;-60